createdAt,value
2023-02-19T00:01:14.834Z,100.00
2023-02-19T00:03:41.355Z,100.00
2023-02-19T00:06:10.532Z,100.00
2023-02-19T00:08:37.634Z,100.00
2023-02-19T00:11:04.604Z,100.00
2023-02-19T00:13:31.056Z,100.00
2023-02-19T00:15:57.462Z,100.00
2023-02-19T00:18:24.104Z,100.00
2023-02-19T00:20:50.504Z,100.00
2023-02-19T00:23:16.939Z,100.00
2023-02-19T00:25:43.364Z,100.00
2023-02-19T00:28:09.772Z,100.00
2023-02-19T00:30:36.151Z,100.00
2023-02-19T00:33:02.590Z,100.00
2023-02-19T00:35:28.972Z,100.00
2023-02-19T00:37:55.369Z,100.00
2023-02-19T00:40:21.763Z,100.00
2023-02-19T00:42:48.211Z,100.00
2023-02-19T00:45:14.615Z,100.00
2023-02-19T00:47:41.028Z,100.00
2023-02-19T00:50:07.495Z,100.00
2023-02-19T00:52:33.901Z,100.00
2023-02-19T00:55:00.297Z,100.00
2023-02-19T00:57:26.708Z,100.00
2023-02-19T00:59:53.094Z,100.00
2023-02-19T01:02:19.513Z,100.00
2023-02-19T01:04:45.973Z,100.00
2023-02-19T01:07:12.401Z,100.00
2023-02-19T01:09:38.857Z,100.00
2023-02-19T01:12:05.954Z,100.00
2023-02-19T01:14:32.717Z,100.00
2023-02-19T01:16:59.124Z,100.00
2023-02-19T01:19:25.602Z,100.00
2023-02-19T01:21:52.010Z,100.00
2023-02-19T01:24:18.422Z,100.00
2023-02-19T01:26:44.800Z,100.00
2023-02-19T01:29:11.218Z,100.00
2023-02-19T01:31:38.732Z,100.00
2023-02-19T01:34:05.193Z,100.00
2023-02-19T01:36:32.837Z,100.00
2023-02-19T01:39:02.997Z,100.00
2023-02-19T01:41:29.431Z,100.00
2023-02-19T01:44:04.274Z,100.00
2023-02-19T01:46:31.790Z,100.00
2023-02-19T01:49:14.000Z,100.00
2023-02-19T01:51:49.050Z,100.00
2023-02-19T01:54:16.415Z,100.00
2023-02-19T01:56:43.092Z,100.00
2023-02-19T01:59:09.526Z,100.00
2023-02-19T02:01:39.193Z,100.00
2023-02-19T02:04:05.933Z,100.00
2023-02-19T02:06:35.584Z,100.00
2023-02-19T02:09:01.985Z,100.00
2023-02-19T02:11:28.399Z,100.00
2023-02-19T02:13:54.785Z,100.00
2023-02-19T02:16:29.333Z,100.00
2023-02-19T02:18:55.635Z,100.00
2023-02-19T02:21:40.213Z,100.00
2023-02-19T02:24:31.506Z,100.00
2023-02-19T02:27:22.119Z,100.00
2023-02-19T02:30:06.802Z,100.00
2023-02-19T02:32:35.420Z,100.00
2023-02-19T02:35:05.801Z,100.00
2023-02-19T02:37:34.104Z,100.00
2023-02-19T02:40:00.484Z,100.00
2023-02-19T02:42:26.930Z,100.00
2023-02-19T02:44:53.987Z,100.00
2023-02-19T02:47:20.416Z,100.00
2023-02-19T02:49:46.835Z,100.00
2023-02-19T02:52:13.222Z,100.00
2023-02-19T02:54:39.641Z,100.00
2023-02-19T02:57:06.032Z,100.00
2023-02-19T02:59:34.212Z,100.00
2023-02-19T03:02:09.551Z,100.00
2023-02-19T03:05:00.410Z,100.00
2023-02-19T03:07:27.858Z,100.00
2023-02-19T03:09:54.279Z,100.00
2023-02-19T03:12:20.664Z,100.00
2023-02-19T03:14:49.185Z,100.00
2023-02-19T03:17:18.863Z,100.00
2023-02-19T03:19:47.483Z,100.00
2023-02-19T03:22:17.666Z,100.00
2023-02-19T03:24:56.433Z,100.00
2023-02-19T03:27:22.829Z,100.00
2023-02-19T03:29:49.272Z,100.00
2023-02-19T03:32:46.387Z,100.00
2023-02-19T03:35:23.502Z,100.00
2023-02-19T03:37:52.807Z,100.00
2023-02-19T03:40:19.233Z,100.00
2023-02-19T03:42:56.356Z,100.00
2023-02-19T03:45:31.857Z,100.00
2023-02-19T03:48:18.334Z,100.00
2023-02-19T03:50:50.682Z,100.00
2023-02-19T03:53:46.326Z,100.00
2023-02-19T03:56:33.422Z,100.00
2023-02-19T03:59:10.311Z,100.00
2023-02-19T04:01:43.984Z,100.00
2023-02-19T04:04:18.297Z,100.00
2023-02-19T04:06:45.256Z,100.00
2023-02-19T04:09:11.685Z,100.00
2023-02-19T04:11:38.097Z,100.00
2023-02-19T04:14:26.138Z,100.00
2023-02-19T04:16:56.483Z,100.00
2023-02-19T04:19:23.730Z,100.00
2023-02-19T04:21:50.131Z,100.00
2023-02-19T04:24:29.446Z,100.00
2023-02-19T04:26:55.823Z,100.00
2023-02-19T04:29:22.221Z,100.00
2023-02-19T04:31:48.651Z,100.00
2023-02-19T04:34:15.078Z,100.00
2023-02-19T04:36:41.512Z,100.00
2023-02-19T04:39:07.925Z,100.00
2023-02-19T04:41:34.328Z,100.00
2023-02-19T04:44:00.716Z,100.00
2023-02-19T04:46:27.296Z,100.00
2023-02-19T04:48:53.802Z,100.00
2023-02-19T04:51:20.207Z,100.00
2023-02-19T04:53:46.598Z,100.00
2023-02-19T04:56:14.154Z,100.00
2023-02-19T04:58:41.129Z,100.00
2023-02-19T05:01:07.604Z,100.00
2023-02-19T05:03:34.031Z,100.00
2023-02-19T05:06:04.351Z,100.00
2023-02-19T05:08:30.759Z,100.00
2023-02-19T05:10:58.486Z,100.00
2023-02-19T05:13:24.971Z,100.00
2023-02-19T05:15:55.956Z,100.00
2023-02-19T05:18:22.369Z,100.00
2023-02-19T05:20:49.837Z,100.00
2023-02-19T05:23:16.234Z,100.00
2023-02-19T05:25:42.630Z,100.00
2023-02-19T05:28:09.054Z,100.00
2023-02-19T05:30:35.521Z,100.00
2023-02-19T05:33:01.985Z,100.00
2023-02-19T05:35:28.366Z,100.00
2023-02-19T05:37:54.784Z,100.00
2023-02-19T05:40:21.161Z,100.00
2023-02-19T05:42:47.573Z,100.00
2023-02-19T05:45:13.954Z,100.00
2023-02-19T05:47:40.350Z,100.00
2023-02-19T05:50:06.875Z,100.00
2023-02-19T05:52:33.286Z,100.00
2023-02-19T05:54:59.669Z,100.00
2023-02-19T05:57:26.073Z,100.00
2023-02-19T05:59:52.453Z,100.00
2023-02-19T06:02:18.849Z,100.00
2023-02-19T06:04:45.243Z,100.00
2023-02-19T06:07:11.634Z,100.00
2023-02-19T06:09:38.039Z,100.00
2023-02-19T06:12:04.645Z,100.00
2023-02-19T06:14:31.033Z,100.00
2023-02-19T06:16:57.421Z,100.00
2023-02-19T06:19:23.814Z,100.00
2023-02-19T06:21:50.549Z,100.00
2023-02-19T06:24:16.988Z,100.00
2023-02-19T06:26:43.385Z,100.00
2023-02-19T06:29:09.813Z,100.00
2023-02-19T06:31:36.324Z,100.00
2023-02-19T06:34:05.793Z,100.00
2023-02-19T06:36:32.279Z,100.00
2023-02-19T06:39:02.450Z,100.00
2023-02-19T06:41:28.885Z,100.00
2023-02-19T06:43:56.597Z,100.00
2023-02-19T06:46:23.056Z,100.00
2023-02-19T06:48:49.487Z,100.00
2023-02-19T06:51:17.090Z,100.00
2023-02-19T06:53:43.515Z,100.00
2023-02-19T06:56:27.139Z,100.00
2023-02-19T06:58:54.504Z,100.00
2023-02-19T07:01:21.532Z,100.00
2023-02-19T07:03:47.973Z,100.00
2023-02-19T07:06:14.410Z,100.00
2023-02-19T07:08:40.810Z,100.00
2023-02-19T07:11:07.214Z,100.00
2023-02-19T07:13:33.744Z,100.00
2023-02-19T07:16:07.544Z,100.00
2023-02-19T07:18:34.105Z,100.00
2023-02-19T07:21:08.394Z,100.00
2023-02-19T07:23:35.056Z,100.00
2023-02-19T07:26:01.450Z,100.00
2023-02-19T07:28:27.842Z,100.00
2023-02-19T07:30:54.359Z,100.00
2023-02-19T07:33:26.486Z,100.00
2023-02-19T07:35:52.925Z,100.00
2023-02-19T07:38:20.288Z,100.00
2023-02-19T07:40:53.554Z,100.00
2023-02-19T07:43:19.936Z,100.00
2023-02-19T07:45:46.347Z,100.00
2023-02-19T07:48:12.764Z,100.00
2023-02-19T07:50:39.170Z,100.00
2023-02-19T07:53:05.593Z,100.00
2023-02-19T07:55:32.717Z,100.00
2023-02-19T07:57:59.670Z,100.00
2023-02-19T08:00:26.979Z,100.00
2023-02-19T08:02:53.753Z,100.00
2023-02-19T08:05:20.173Z,100.00
2023-02-19T08:07:46.545Z,100.00
2023-02-19T08:10:12.969Z,100.00
2023-02-19T08:12:39.355Z,100.00
2023-02-19T08:15:05.914Z,100.00
2023-02-19T08:17:32.292Z,100.00
2023-02-19T08:19:58.678Z,100.00
2023-02-19T08:22:25.099Z,100.00
2023-02-19T08:24:51.494Z,100.00
2023-02-19T08:27:17.896Z,100.00
2023-02-19T08:29:44.301Z,100.00
2023-02-19T08:32:10.764Z,100.00
2023-02-19T08:34:37.245Z,100.00
2023-02-19T08:37:03.654Z,100.00
2023-02-19T08:39:30.047Z,100.00
2023-02-19T08:41:56.461Z,100.00
2023-02-19T08:44:22.861Z,100.00
2023-02-19T08:46:49.327Z,100.00
2023-02-19T08:49:15.738Z,100.00
2023-02-19T08:51:42.161Z,100.00
2023-02-19T08:54:08.599Z,100.00
2023-02-19T08:56:35.025Z,100.00
2023-02-19T08:59:01.423Z,100.00
2023-02-19T09:01:27.872Z,100.00
2023-02-19T09:03:54.358Z,100.00
2023-02-19T09:06:20.895Z,100.00
2023-02-19T09:08:47.324Z,100.00
2023-02-19T09:11:14.176Z,100.00
2023-02-19T09:13:40.905Z,100.00
2023-02-19T09:16:07.479Z,100.00
2023-02-19T09:18:33.933Z,100.00
2023-02-19T09:21:01.399Z,100.00
2023-02-19T09:23:28.043Z,100.00
2023-02-19T09:25:58.817Z,100.00
2023-02-19T09:28:25.572Z,100.00
2023-02-19T09:30:52.044Z,100.00
2023-02-19T09:33:18.440Z,100.00
2023-02-19T09:35:44.868Z,100.00
2023-02-19T09:38:11.273Z,100.00
2023-02-19T09:40:38.458Z,100.00
2023-02-19T09:43:09.106Z,100.00
2023-02-19T09:45:35.526Z,100.00
2023-02-19T09:48:01.915Z,100.00
2023-02-19T09:50:34.384Z,100.00
2023-02-19T09:53:02.874Z,100.00
2023-02-19T09:55:34.787Z,100.00
2023-02-19T09:58:03.149Z,100.00
2023-02-19T10:00:30.521Z,100.00
2023-02-19T10:03:05.267Z,100.00
2023-02-19T10:05:32.232Z,100.00
2023-02-19T10:07:58.652Z,100.00
2023-02-19T10:10:29.156Z,100.00
2023-02-19T10:12:57.008Z,100.00
2023-02-19T10:15:34.917Z,100.00
2023-02-19T10:18:01.339Z,100.00
2023-02-19T10:20:27.735Z,100.00
2023-02-19T10:23:04.682Z,99.64
2023-02-19T10:25:31.577Z,99.33
2023-02-19T10:27:58.899Z,97.85
2023-02-19T10:30:28.571Z,97.54
2023-02-19T10:33:11.021Z,96.14
2023-02-19T10:35:38.972Z,96.04
2023-02-19T10:38:05.467Z,94.93
2023-02-19T10:40:31.872Z,94.46
2023-02-19T10:43:02.134Z,94.52
2023-02-19T10:45:47.639Z,94.62
2023-02-19T10:48:29.636Z,92.80
2023-02-19T10:50:58.288Z,92.82
2023-02-19T10:53:44.669Z,90.25
2023-02-19T10:56:25.157Z,88.28
2023-02-19T10:58:51.577Z,88.29
2023-02-19T11:01:22.678Z,89.50
2023-02-19T11:03:50.567Z,86.70
2023-02-19T11:06:18.569Z,85.65
2023-02-19T11:08:57.724Z,85.74
2023-02-19T11:11:26.765Z,85.94
2023-02-19T11:13:54.526Z,84.24
2023-02-19T11:16:20.940Z,84.64
2023-02-19T11:18:56.892Z,82.36
2023-02-19T11:21:28.548Z,81.57
2023-02-19T11:23:54.931Z,82.19
2023-02-19T11:26:25.611Z,81.52
2023-02-19T11:29:02.487Z,81.39
2023-02-19T11:31:31.145Z,80.01
2023-02-19T11:34:15.880Z,78.83
2023-02-19T11:36:42.348Z,76.63
2023-02-19T11:39:17.611Z,77.12
2023-02-19T11:41:56.565Z,77.74
2023-02-19T11:44:53.843Z,76.24
2023-02-19T11:47:50.956Z,75.45
2023-02-19T11:50:20.185Z,76.61
2023-02-19T11:52:56.317Z,75.04
2023-02-19T11:55:45.326Z,75.26
2023-02-19T11:58:23.795Z,75.89
2023-02-19T12:00:55.706Z,73.75
2023-02-19T12:03:34.605Z,74.27
2023-02-19T12:06:28.738Z,74.88
2023-02-19T12:09:22.027Z,74.69
2023-02-19T12:12:14.404Z,75.56
2023-02-19T12:14:46.697Z,76.43
2023-02-19T12:17:22.005Z,75.33
2023-02-19T12:19:57.804Z,74.89
2023-02-19T12:22:28.667Z,74.20
2023-02-19T12:25:01.178Z,74.27
2023-02-19T12:27:52.288Z,75.18
2023-02-19T12:31:00.152Z,72.56
2023-02-19T12:34:03.194Z,71.62
2023-02-19T12:36:52.570Z,70.29
2023-02-19T12:39:25.831Z,70.53
2023-02-19T12:42:11.545Z,70.21
2023-02-19T12:44:42.572Z,68.68
2023-02-19T12:47:13.117Z,68.87
2023-02-19T12:49:41.496Z,68.89
2023-02-19T12:52:26.926Z,68.33
2023-02-19T12:54:58.985Z,68.66
2023-02-19T12:57:27.438Z,69.25
2023-02-19T12:59:55.116Z,70.58
2023-02-19T13:02:29.843Z,70.27
2023-02-19T13:05:01.942Z,67.84
2023-02-19T13:07:42.849Z,67.53
2023-02-19T13:10:31.190Z,67.20
2023-02-19T13:12:59.048Z,68.80
2023-02-19T13:15:33.837Z,67.20
2023-02-19T13:18:01.568Z,62.56
2023-02-19T13:20:32.411Z,61.32
2023-02-19T13:23:22.057Z,59.55
2023-02-19T13:26:08.993Z,60.00
2023-02-19T13:28:47.363Z,60.06
2023-02-19T13:31:42.068Z,61.38
2023-02-19T13:34:17.301Z,62.92
2023-02-19T13:36:43.704Z,64.89
2023-02-19T13:41:43.137Z,65.30
2023-02-19T13:44:28.924Z,65.25
2023-02-19T13:46:58.457Z,65.37
2023-02-19T13:49:27.822Z,66.38
2023-02-19T13:51:57.713Z,66.72
2023-02-19T13:54:34.104Z,66.96
2023-02-19T13:57:21.710Z,67.00
2023-02-19T13:59:48.414Z,66.73
2023-02-19T14:02:20.793Z,66.79
2023-02-19T14:05:08.242Z,65.62
2023-02-19T14:07:41.561Z,65.71
2023-02-19T14:10:12.495Z,64.86
2023-02-19T14:12:38.935Z,64.69
2023-02-19T14:15:36.303Z,61.84
2023-02-19T14:18:02.737Z,57.60
2023-02-19T14:20:43.050Z,53.28
2023-02-19T14:23:22.671Z,53.43
2023-02-19T14:25:52.533Z,54.57
2023-02-19T14:28:21.411Z,55.52
2023-02-19T14:30:52.019Z,54.40
2023-02-19T14:33:27.830Z,54.83
2023-02-19T14:36:18.875Z,53.54
2023-02-19T14:38:52.292Z,53.70
2023-02-19T14:41:18.670Z,52.84
2023-02-19T14:43:45.706Z,53.86
2023-02-19T14:46:22.395Z,54.08
2023-02-19T14:48:49.328Z,55.86
2023-02-19T14:51:30.997Z,56.88
2023-02-19T14:53:57.436Z,57.75
2023-02-19T14:56:30.169Z,59.43
2023-02-19T14:59:26.649Z,60.89
2023-02-19T15:02:12.538Z,62.28
2023-02-19T15:04:38.947Z,63.27
2023-02-19T15:07:10.058Z,62.56
2023-02-19T15:09:41.334Z,61.87
2023-02-19T15:12:07.769Z,60.41
2023-02-19T15:14:34.181Z,58.92
2023-02-19T15:17:02.294Z,60.47
2023-02-19T15:19:29.366Z,62.68
2023-02-19T15:21:55.794Z,63.84
2023-02-19T15:24:22.197Z,65.44
2023-02-19T15:26:50.335Z,67.00
2023-02-19T15:29:18.702Z,66.81
2023-02-19T15:31:49.607Z,66.29
2023-02-19T15:34:28.475Z,68.02
2023-02-19T15:37:05.359Z,69.11
2023-02-19T15:39:37.802Z,69.66
2023-02-19T15:42:04.856Z,70.28
2023-02-19T15:44:31.132Z,71.60
2023-02-19T15:46:57.553Z,71.27
2023-02-19T15:49:26.333Z,72.63
2023-02-19T15:52:02.133Z,73.02
2023-02-19T15:54:31.400Z,72.98
2023-02-19T15:56:59.358Z,73.57
2023-02-19T15:59:31.044Z,74.31
2023-02-19T16:01:57.483Z,74.78
2023-02-19T16:04:23.918Z,75.07
2023-02-19T16:06:52.362Z,75.82
2023-02-19T16:09:20.471Z,76.10
2023-02-19T16:11:51.549Z,76.43
2023-02-19T16:14:36.974Z,76.23
2023-02-19T16:17:06.053Z,77.18
2023-02-19T16:19:36.304Z,77.32
2023-02-19T16:22:02.683Z,76.95
2023-02-19T16:24:36.084Z,77.62
2023-02-19T16:27:02.968Z,78.30
2023-02-19T16:29:31.381Z,77.70
2023-02-19T16:32:02.664Z,77.52
2023-02-19T16:34:48.549Z,78.35
2023-02-19T16:37:36.960Z,78.68
2023-02-19T16:40:09.028Z,78.40
2023-02-19T16:42:44.602Z,78.36
2023-02-19T16:45:10.991Z,78.83
2023-02-19T16:47:37.728Z,79.26
2023-02-19T16:50:07.315Z,79.20
2023-02-19T16:52:33.728Z,79.01
2023-02-19T16:55:00.357Z,79.24
2023-02-19T16:57:27.230Z,79.54
2023-02-19T16:59:53.723Z,79.65
2023-02-19T17:02:20.890Z,79.56
2023-02-19T17:04:47.536Z,79.35
2023-02-19T17:07:17.195Z,79.54
2023-02-19T17:09:43.620Z,79.88
2023-02-19T17:12:14.538Z,79.59
2023-02-19T17:14:41.056Z,79.82
2023-02-19T17:17:07.504Z,79.98
2023-02-19T17:19:33.936Z,80.01
2023-02-19T17:22:00.327Z,80.54
2023-02-19T17:24:26.750Z,80.58
2023-02-19T17:26:53.148Z,80.25
2023-02-19T17:29:19.571Z,79.89
2023-02-19T17:31:46.051Z,80.08
2023-02-19T17:34:12.480Z,79.85
2023-02-19T17:36:38.873Z,79.43
2023-02-19T17:39:05.518Z,80.02
2023-02-19T17:41:31.933Z,79.45
2023-02-19T17:43:58.346Z,79.48
2023-02-19T17:46:25.714Z,79.63
2023-02-19T17:48:52.329Z,79.79
2023-02-19T17:51:18.722Z,79.95
2023-02-19T17:53:45.097Z,80.18
2023-02-19T17:56:15.064Z,79.96
2023-02-19T17:58:41.531Z,80.44
2023-02-19T18:01:08.179Z,80.53
2023-02-19T18:03:34.645Z,80.39
2023-02-19T18:06:05.612Z,80.64
2023-02-19T18:08:32.125Z,80.91
2023-02-19T18:10:58.800Z,80.87
2023-02-19T18:13:25.429Z,81.11
2023-02-19T18:15:51.983Z,81.48
2023-02-19T18:18:18.409Z,81.43
2023-02-19T18:20:44.807Z,82.05
2023-02-19T18:23:11.183Z,81.76
2023-02-19T18:25:37.596Z,81.92
2023-02-19T18:28:04.231Z,82.16
2023-02-19T18:30:30.818Z,82.36
2023-02-19T18:32:57.427Z,82.43
2023-02-19T18:35:23.849Z,82.53
2023-02-19T18:37:51.342Z,82.54
2023-02-19T18:40:18.354Z,82.70
2023-02-19T18:42:44.737Z,83.14
2023-02-19T18:45:11.410Z,83.42
2023-02-19T18:47:38.939Z,83.51
2023-02-19T18:50:05.950Z,84.06
2023-02-19T18:52:33.808Z,84.29
2023-02-19T18:55:01.592Z,84.56
2023-02-19T18:57:29.183Z,84.62
2023-02-19T18:59:57.220Z,84.41
2023-02-19T19:02:24.282Z,84.84
2023-02-19T19:04:51.414Z,84.91
2023-02-19T19:07:18.275Z,85.52
2023-02-19T19:09:47.252Z,85.57
2023-02-19T19:12:14.339Z,86.04
2023-02-19T19:14:40.748Z,86.40
2023-02-19T19:17:07.156Z,86.65
2023-02-19T19:19:33.737Z,86.79
2023-02-19T19:22:00.251Z,86.79
2023-02-19T19:24:26.683Z,86.95
2023-02-19T19:26:53.077Z,87.30
2023-02-19T19:29:20.574Z,87.98
2023-02-19T19:31:47.197Z,88.16
2023-02-19T19:34:13.885Z,88.19
2023-02-19T19:36:40.352Z,88.51
2023-02-19T19:39:06.867Z,88.86
2023-02-19T19:41:33.395Z,89.48
2023-02-19T19:44:03.302Z,89.91
2023-02-19T19:46:29.626Z,90.30
2023-02-19T19:48:56.031Z,91.06
2023-02-19T19:51:22.466Z,91.65
2023-02-19T19:53:49.041Z,91.48
2023-02-19T19:56:16.225Z,91.76
2023-02-19T19:58:42.611Z,92.03
2023-02-19T20:01:09.129Z,92.13
2023-02-19T20:03:35.537Z,92.49
2023-02-19T20:06:01.972Z,92.60
2023-02-19T20:08:28.385Z,92.51
2023-02-19T20:10:54.819Z,92.94
2023-02-19T20:13:21.530Z,93.33
2023-02-19T20:15:47.984Z,93.80
2023-02-19T20:18:14.415Z,94.00
2023-02-19T20:20:40.811Z,94.58
2023-02-19T20:23:07.222Z,94.29
2023-02-19T20:25:33.609Z,94.43
2023-02-19T20:28:00.081Z,94.61
2023-02-19T20:30:26.566Z,94.55
2023-02-19T20:32:53.032Z,94.79
2023-02-19T20:35:21.062Z,94.64
2023-02-19T20:37:47.473Z,94.16
2023-02-19T20:40:15.199Z,94.21
2023-02-19T20:42:41.622Z,94.44
2023-02-19T20:45:08.450Z,94.28
2023-02-19T20:47:34.865Z,94.47
2023-02-19T20:50:01.248Z,94.79
2023-02-19T20:52:27.669Z,94.71
2023-02-19T20:54:55.135Z,94.71
2023-02-19T20:57:21.684Z,94.74
2023-02-19T20:59:48.123Z,94.96
2023-02-19T21:02:19.767Z,94.68
2023-02-19T21:04:46.152Z,95.21
2023-02-19T21:07:12.583Z,95.08
2023-02-19T21:09:38.986Z,95.14
2023-02-19T21:12:05.534Z,95.10
2023-02-19T21:14:31.981Z,94.92
2023-02-19T21:16:58.409Z,94.85
2023-02-19T21:19:24.803Z,94.98
2023-02-19T21:21:51.232Z,94.57
2023-02-19T21:24:17.633Z,95.12
2023-02-19T21:26:44.041Z,95.18
2023-02-19T21:29:13.847Z,94.86
2023-02-19T21:31:44.591Z,94.84
2023-02-19T21:34:12.133Z,94.93
2023-02-19T21:36:38.565Z,94.88
2023-02-19T21:39:05.596Z,94.72
2023-02-19T21:41:31.999Z,94.68
2023-02-19T21:43:58.408Z,94.51
2023-02-19T21:46:24.967Z,95.03
2023-02-19T21:48:52.111Z,95.27
2023-02-19T21:51:18.826Z,95.35
2023-02-19T21:53:45.240Z,95.23
2023-02-19T21:56:12.370Z,95.30
2023-02-19T21:58:38.998Z,95.72
2023-02-19T22:01:05.467Z,95.40
2023-02-19T22:03:31.876Z,95.64
2023-02-19T22:06:00.768Z,95.70
2023-02-19T22:08:27.154Z,96.06
2023-02-19T22:10:53.555Z,96.04
2023-02-19T22:13:19.928Z,95.92
2023-02-19T22:15:46.346Z,95.67
2023-02-19T22:18:12.732Z,95.86
2023-02-19T22:20:39.199Z,95.90
2023-02-19T22:23:06.037Z,95.79
2023-02-19T22:25:32.454Z,95.49
2023-02-19T22:28:00.154Z,95.68
2023-02-19T22:30:26.786Z,95.44
2023-02-19T22:32:53.213Z,95.38
2023-02-19T22:35:19.605Z,95.49
2023-02-19T22:37:46.019Z,95.25
2023-02-19T22:40:12.673Z,95.24
2023-02-19T22:42:39.082Z,95.43
2023-02-19T22:45:06.129Z,95.39
2023-02-19T22:47:32.545Z,95.49
2023-02-19T22:49:58.945Z,95.53
2023-02-19T22:52:25.333Z,95.28
2023-02-19T22:54:52.342Z,94.84
2023-02-19T22:57:18.784Z,95.25
2023-02-19T22:59:45.218Z,94.88
2023-02-19T23:02:11.659Z,94.96
2023-02-19T23:04:38.117Z,95.20
2023-02-19T23:07:07.280Z,94.66
2023-02-19T23:09:33.711Z,94.68
2023-02-19T23:12:05.052Z,94.49
2023-02-19T23:14:31.515Z,94.97
2023-02-19T23:16:58.018Z,95.02
2023-02-19T23:19:24.731Z,94.83
2023-02-19T23:21:51.278Z,94.99
2023-02-19T23:24:17.671Z,95.01
2023-02-19T23:26:45.438Z,94.75
2023-02-19T23:29:14.125Z,94.76
2023-02-19T23:31:40.619Z,94.94
2023-02-19T23:34:07.112Z,94.78
2023-02-19T23:36:34.071Z,94.56
2023-02-19T23:39:00.457Z,94.55
2023-02-19T23:41:26.866Z,94.40
2023-02-19T23:43:53.280Z,94.18
2023-02-19T23:46:19.673Z,94.18
2023-02-19T23:48:46.137Z,93.69
2023-02-19T23:51:12.544Z,93.67
2023-02-19T23:53:38.946Z,93.45
2023-02-19T23:56:05.921Z,93.52
2023-02-19T23:58:32.324Z,93.64
